Main page
METAR-TAF:

METAR-TAF

Airports :

Dushanbe, Tajikistan

Dushanbe International Airport

latitude: 38-33N, longitude: 068-47E, elevation: 803 m

Current weather observation

The report was made 12 minutes ago, at 11:30 UTC
Wind 2 kt from variable directions
Temperature 26°C
Humidity 28%
Pressure 1017 hPa
Visibility 10 km or more
Few clouds at a height of 6600 ft

METAR: UTDD 261130Z VRB01MPS 9999 FEW066 26/06 Q1017 R09/CLRD// NOSIG RMK QFE694/0926

Time: 16:42 (11:42 UTC)

Forecast

The report was made 2 hours and 42 minutes ago, at 09:00 UTC
Forecast valid from 26 at 10 UTC to 26 at 22 UTC
Wind 4 kt from variable directions
Visibility: 6000 m
Few clouds at a height of 6000 ft
Scattered clouds at a height of 12000 ft

TAF: UTDD 260900Z 2610/2622 VRB02MPS 6000 FEW060 SCT120

Weather observations and forecasts of more than 4000 airports (METAR and TAF reports).

The available stations are represented by yellow and red dots on the map.

Hover mouse over dot to see the name of the station.

Then click to see weather observations and forecasts.

To change the map : click on the green buttons with a black cross to zoom in, on the green button with a dash to zoom out, or on the green arrows for adjacent maps.


METAR-TAF: